Weather at F.G.L. Airport Granada-Jaén Airport

Public forecast

Using degrees Celsius for public forecast. Weather courtesy of forecast.io.

Current aviation weather report (METAR) for F.G.L. Airport Granada-Jaén Airport

2024/05/26 16:00 (retrieved 23 minutes ago)

LEGR 261600Z 30011KT 270V350 9999 FEW070 33/11 Q1016

Aviation forecast (TAF) for F.G.L. Airport Granada-Jaén Airport

2024/05/26 12:27 (retrieved 4 hours ago)

TAF LEGR 261100Z 2612/2712 VRB02KT CAVOK TX33/2615Z TN14/2706Z BECMG 2612/2614 25010KT BECMG 2620/2622 VRB02KT